createdAt,value
2018-10-06T10:33:16.995Z,22.87
2018-10-06T10:35:45.543Z,22.76
2018-10-06T10:38:25.307Z,22.74
2018-10-06T10:40:53.855Z,22.70
2018-10-06T10:43:22.412Z,22.81
2018-10-06T10:45:50.983Z,22.91
2018-10-06T10:48:19.556Z,22.84
2018-10-06T10:50:48.132Z,22.95
2018-10-06T10:53:16.874Z,23.04
2018-10-06T10:55:45.473Z,23.13
2018-10-06T13:06:10.765Z,24.10
2018-10-06T13:08:39.289Z,23.78
2018-10-06T13:11:07.832Z,23.75
2018-10-06T13:13:36.381Z,23.86
2018-10-06T13:16:04.920Z,23.87
2018-10-06T13:18:33.520Z,23.91
2018-10-06T13:21:02.046Z,23.94
2018-10-06T13:23:30.584Z,23.82
2018-10-06T13:25:59.156Z,23.75
2018-10-06T13:28:27.687Z,23.81
2018-10-06T13:30:56.236Z,23.74
2018-10-06T13:33:24.812Z,23.52
2018-10-06T13:35:53.348Z,23.47
2018-10-06T13:38:21.897Z,23.52
2018-10-06T13:40:50.443Z,23.33
2018-10-06T13:43:18.998Z,23.45
2018-10-06T13:45:47.544Z,23.56
2018-10-06T13:48:16.092Z,23.62
2018-10-06T13:50:44.615Z,23.68
2018-10-06T13:53:13.164Z,23.53
2018-10-06T13:55:41.723Z,23.48
2018-10-06T13:58:10.339Z,23.44
2018-10-06T14:00:38.871Z,23.34
2018-10-06T14:03:08.229Z,23.24
2018-10-06T14:05:36.790Z,23.35
2018-10-06T14:08:05.463Z,23.12
2018-10-06T14:10:34.023Z,23.16
2018-10-06T14:13:02.574Z,23.17
2018-10-06T14:15:31.108Z,23.27
2018-10-06T14:18:02.509Z,23.39
2018-10-06T14:20:31.045Z,23.38
2018-10-06T14:23:14.688Z,23.34
2018-10-06T14:25:43.248Z,23.26
2018-10-06T14:31:02.035Z,23.14
2018-10-06T14:33:30.581Z,22.95
2018-10-06T14:35:59.124Z,22.85
2018-10-06T14:38:27.676Z,22.76
2018-10-06T14:40:56.665Z,22.72
2018-10-06T14:43:25.215Z,22.73
2018-10-06T14:45:53.772Z,22.59
2018-10-06T14:48:22.312Z,22.68
2018-10-06T14:50:51.004Z,22.70
2018-10-06T14:53:19.636Z,22.55
2018-10-06T14:55:48.171Z,22.59
2018-10-06T14:58:16.714Z,22.70
2018-10-06T15:00:45.245Z,22.74
2018-10-06T15:03:13.800Z,22.73
2018-10-06T15:05:42.343Z,22.68
2018-10-06T15:08:10.900Z,22.67
2018-10-06T15:10:39.436Z,22.62
2018-10-06T15:13:08.008Z,22.53
2018-10-06T15:15:37.352Z,22.50
2018-10-06T15:23:47.183Z,22.20
2018-10-06T15:26:15.761Z,22.21
2018-10-06T15:28:44.324Z,22.13
2018-10-06T15:31:12.876Z,22.12
2018-10-06T15:33:41.433Z,22.13
2018-10-06T15:36:09.982Z,22.19
2018-10-06T15:38:39.293Z,21.68
2018-10-06T15:41:07.819Z,21.38
2018-10-06T15:43:39.300Z,21.14
2018-10-06T15:46:08.102Z,20.86
2018-10-06T15:48:36.671Z,20.81
2018-10-06T15:51:05.287Z,20.62
2018-10-06T15:53:33.780Z,20.52
2018-10-06T15:56:02.607Z,20.46
2018-10-06T15:58:31.148Z,20.26
2018-10-06T16:00:59.706Z,20.08
2018-10-06T16:03:28.332Z,19.94
2018-10-06T16:05:56.939Z,19.88
2018-10-06T16:08:25.525Z,19.64
2018-10-06T16:10:54.072Z,19.68
2018-10-06T16:13:22.638Z,19.51
2018-10-06T16:15:51.203Z,19.41
2018-10-06T19:39:36.606Z,16.23
2018-10-06T19:42:05.154Z,16.25
2018-10-06T19:44:33.694Z,16.19
2018-10-06T19:47:02.270Z,16.13
2018-10-06T19:49:30.861Z,16.12
2018-10-06T19:51:59.431Z,16.14
2018-10-06T19:54:28.014Z,16.10
2018-10-06T19:56:56.560Z,15.99
2018-10-06T19:59:25.124Z,16.03
2018-10-06T20:01:53.699Z,16.04
2018-10-06T20:04:22.340Z,16.05
2018-10-06T20:06:50.876Z,15.95
2018-10-06T20:09:19.435Z,16.02
2018-10-06T20:11:48.040Z,15.95
2018-10-06T20:14:16.563Z,15.89
2018-10-06T20:16:45.152Z,15.87
2018-10-06T20:19:13.759Z,15.76
2018-10-06T20:21:42.287Z,15.68
2018-10-06T20:24:10.830Z,15.61
2018-10-06T20:26:39.392Z,15.62
2018-10-06T20:29:07.943Z,15.71
2018-10-06T20:31:36.473Z,15.71
2018-10-06T20:34:05.064Z,15.71
2018-10-06T20:36:33.603Z,15.70
2018-10-06T20:39:02.171Z,15.73
2018-10-06T20:41:30.740Z,15.63
2018-10-06T20:43:59.278Z,15.53
2018-10-06T20:46:27.899Z,15.48
2018-10-06T20:48:56.432Z,15.46
2018-10-06T20:51:24.991Z,15.54
2018-10-06T20:53:53.546Z,15.52
2018-10-06T20:56:22.124Z,15.46
2018-10-06T20:58:50.653Z,15.51
2018-10-06T21:01:19.212Z,15.49
2018-10-06T21:03:47.805Z,15.45
2018-10-06T21:06:16.353Z,15.46
2018-10-06T21:08:44.952Z,15.44
2018-10-06T21:11:13.627Z,15.38
2018-10-06T21:13:42.256Z,15.33
2018-10-06T21:16:10.807Z,15.31
2018-10-06T21:18:39.398Z,15.24
2018-10-06T21:21:08.093Z,15.27
2018-10-06T21:23:36.664Z,15.29
2018-10-06T21:26:05.272Z,15.24
2018-10-06T21:28:33.865Z,15.22
2018-10-06T21:31:02.421Z,15.24
2018-10-06T21:33:30.976Z,15.12
2018-10-06T21:35:59.535Z,15.15
2018-10-06T21:38:28.124Z,15.09
2018-10-06T21:40:56.703Z,15.03
2018-10-06T21:43:25.269Z,14.98
2018-10-06T21:45:53.800Z,14.96
2018-10-06T21:48:22.347Z,14.88
2018-10-06T21:50:50.900Z,14.90
2018-10-06T21:53:19.477Z,14.90
2018-10-06T21:55:48.067Z,14.94
2018-10-06T21:58:16.600Z,14.94
2018-10-06T22:00:48.819Z,14.70
2018-10-06T22:03:17.492Z,14.63
2018-10-06T22:05:46.069Z,14.60
2018-10-06T22:08:14.628Z,14.65
2018-10-06T22:10:43.219Z,14.60
2018-10-06T22:13:11.813Z,14.46
2018-10-06T22:15:40.385Z,14.44
2018-10-06T23:28:17.732Z,14.32
2018-10-06T23:30:46.322Z,14.34
2018-10-06T23:33:14.885Z,14.37
2018-10-06T23:35:43.444Z,14.24
2018-10-06T23:38:11.997Z,14.20
2018-10-06T23:40:40.564Z,14.20
2018-10-06T23:43:09.257Z,14.24
2018-10-06T23:45:37.812Z,14.26
2018-10-06T23:48:06.537Z,14.33
2018-10-06T23:50:35.217Z,14.29
2018-10-06T23:53:03.832Z,14.21
2018-10-06T23:55:32.382Z,14.24
2018-10-06T23:58:01.031Z,14.18
